Data for 12/13/2015

Time Sea-Level Adjusted Pressure Absolute Pressure Temperature Relative Humidity Dew Point   
(mb) (inHg) (mb) (inHg) (C) (F) (%) (C) (F)
00:05 1008 29.77 838 24.75 -0.3 31.4 44 -11.3 11.7
00:10 1008 29.77 837 24.72 -0.4 31.4 45 -11 12.1
00:15 1008 29.77 837 24.72 -0.6 31 47 -10.7 12.8
00:20 1008 29.77 837 24.72 -0.9 30.3 47 -10.9 12.3
00:25 1008 29.77 837 24.72 -0.5 31 42 -12.1 10.3
00:30 1008 29.77 837 24.72 0.1 32.2 41 -11.8 10.8
00:35 1008 29.77 837 24.72 0.2 32.4 41 -11.4 11.4
00:40 1008 29.77 837 24.72 -0.2 31.6 46 -10.5 13.1
00:45 1008 29.77 837 24.72 -0.6 30.9 46 -11 12.2
00:50 1008 29.77 837 24.72 -0.5 31 43 -11.6 11.1
00:55 1008 29.77 837 24.72 -0.2 31.7 41 -11.9 10.6
01:00 1008 29.77 837 24.72 0.2 32.3 43 -11.1 12
01:05 1008 29.77 837 24.72 0.1 32.2 42 -11.5 11.3
01:10 1008 29.77 837 24.72 0.1 32.2 42 -11.4 11.4
01:15 1008 29.77 837 24.72 0.2 32.4 43 -11 12.2
01:20 1007 29.74 836 24.69 0.2 32.3 41 -11.6 11.1
01:25 1007 29.74 836 24.69 0.3 32.6 40 -11.7 10.9
01:30 1007 29.74 836 24.69 0.4 32.7 42 -11.1 12.1
01:35 1007 29.74 836 24.69 0.2 32.4 43 -10.9 12.4
01:40 1007 29.74 836 24.69 0.3 32.5 44 -10.7 12.8
01:45 1007 29.74 836 24.69 0.5 33 42 -11 12.3
01:50 1007 29.74 836 24.69 1.1 34 42 -10.5 13
01:55 1007 29.74 836 24.69 1.3 34.4 42 -10.3 13.4
02:00 1007 29.74 836 24.69 1.4 34.5 42 -10.2 13.6
02:05 1007 29.74 836 24.69 1.5 34.7 42 -10 14.1
02:10 1007 29.74 836 24.69 1.7 35.1 40 -10.5 13.1
02:15 1007 29.74 836 24.69 1.8 35.2 42 -9.9 14.2
02:20 1007 29.74 836 24.69 1.8 35.2 41 -10.1 13.7
02:25 1007 29.74 836 24.69 1.4 34.5 42 -10.1 13.8
02:30 1007 29.74 836 24.69 0.9 33.6 44 -10 14
02:35 1007 29.74 836 24.69 1 33.7 46 -9.5 14.8
02:40 1007 29.74 836 24.69 1.1 34 45 -9.5 14.9
02:45 1007 29.74 836 24.69 1.4 34.6 45 -9.3 15.3
02:50 1007 29.74 836 24.69 1.9 35.4 44 -9 15.7
02:55 1007 29.74 836 24.69 2.1 35.7 45 -8.7 16.4
03:00 1007 29.74 837 24.72 2 35.7 45 -8.6 16.6
03:05 1007 29.74 837 24.72 2 35.6 46 -8.5 16.7
03:10 1007 29.74 837 24.72 2 35.6 47 -8.3 17
03:15 1007 29.74 837 24.72 1.5 34.7 48 -8.3 17
03:20 1007 29.74 836 24.69 1.4 34.5 48 -8.6 16.6
03:25 1007 29.74 837 24.72 1.3 34.3 48 -8.5 16.6
03:30 1007 29.74 837 24.72 1.4 34.5 48 -8.4 16.9
03:35 1007 29.74 836 24.69 1.8 35.3 47 -8.4 16.8
03:40 1007 29.74 836 24.69 2.2 36 45 -8.5 16.7
03:45 1007 29.74 836 24.69 2.4 36.3 45 -8.4 16.9
03:50 1007 29.74 836 24.69 2.3 36.2 45 -8.3 17.1
03:55 1007 29.74 836 24.69 2.3 36.2 45 -8.3 17
04:00 1007 29.74 836 24.69 2.2 36 46 -8.3 17
04:05 1007 29.74 836 24.69 2.2 36 46 -8.4 16.9
04:10 1007 29.74 836 24.69 2.2 35.9 47 -8.1 17.4
04:15 1007 29.74 836 24.69 2.1 35.7 47 -8.1 17.4
04:20 1007 29.74 836 24.69 1.9 35.5 49 -7.8 18
04:25 1007 29.74 836 24.69 1.8 35.2 49 -7.7 18.1
04:30 1007 29.74 836 24.69 1.7 35.1 50 -7.7 18.2
04:35 1007 29.74 836 24.69 1.8 35.2 49 -7.8 17.9
04:40 1007 29.74 836 24.69 1.8 35.3 49 -7.7 18.1
04:45 1007 29.74 836 24.69 1.9 35.3 50 -7.5 18.4
04:50 1007 29.74 836 24.69 1.8 35.3 50 -7.4 18.6
04:55 1007 29.74 836 24.69 1.7 35.1 51 -7.3 18.8
05:00 1007 29.74 836 24.69 1.6 34.8 52 -7.4 18.7
05:05 1007 29.74 836 24.69 1.6 34.8 51 -7.4 18.7
05:10 1007 29.74 836 24.69 1.6 34.9 51 -7.4 18.7
05:15 1007 29.74 836 24.69 1.6 34.9 52 -7.2 19
05:20 1007 29.74 836 24.69 1.5 34.7 53 -7.1 19.2
05:25 1007 29.74 836 24.69 1.4 34.6 53 -7.1 19.2
05:30 1007 29.74 836 24.69 1.3 34.4 54 -7.1 19.2
05:35 1007 29.74 836 24.69 1.2 34.1 54 -7.1 19.2
05:40 1007 29.74 836 24.69 1 33.9 55 -7 19.4
05:45 1007 29.74 836 24.69 1.1 33.9 54 -7.2 19
05:50 1007 29.74 836 24.69 1.1 34 55 -7 19.4
05:55 1007 29.74 836 24.69 1 33.8 54 -7.2 19
06:00 1007 29.74 836 24.69 1.1 34 53 -7.5 18.5
06:05 1007 29.74 836 24.69 1.3 34.3 53 -7.3 18.9
06:10 1007 29.74 836 24.69 1.2 34.2 53 -7.4 18.7
06:15 1007 29.74 836 24.69 1.4 34.5 53 -7.2 19
06:20 1007 29.74 836 24.69 1.3 34.3 53 -7.3 18.8
06:25 1007 29.74 836 24.69 1.3 34.3 52 -7.4 18.6
06:30 1007 29.74 836 24.69 1.4 34.6 51 -7.6 18.3
06:35 1007 29.74 836 24.69 1.6 35 51 -7.5 18.4
06:40 1007 29.74 836 24.69 1.7 35.1 50 -7.6 18.4
06:45 1007 29.74 836 24.69 1.8 35.2 51 -7.4 18.7
06:50 1007 29.74 836 24.69 1.4 34.5 52 -7.4 18.7
06:55 1007 29.74 836 24.69 1.3 34.3 53 -7.3 18.8
07:00 1007 29.74 836 24.69 1.2 34.1 54 -7.1 19.1
07:05 1007 29.74 836 24.69 1.1 34 52 -7.7 18.1
07:10 1007 29.74 836 24.69 1.4 34.6 50 -7.8 17.9
07:15 1007 29.74 836 24.69 1.7 35.1 51 -7.4 18.6
07:20 1007 29.74 836 24.69 1.5 34.6 52 -7.3 18.9
07:25 1007 29.74 836 24.69 1.3 34.3 53 -7.3 18.9
07:30 1007 29.74 836 24.69 1.2 34.2 52 -7.5 18.5
07:35 1007 29.74 836 24.69 1.5 34.6 50 -7.8 17.9
07:40 1007 29.74 836 24.69 1.5 34.7 53 -7 19.3
07:45 1007 29.74 836 24.69 1.2 34.2 53 -7.2 19
07:50 1007 29.74 836 24.69 1.2 34.1 52 -7.7 18.1
07:55 1007 29.74 836 24.69 1.5 34.6 50 -7.8 17.9
08:00 1007 29.74 836 24.69 1.7 35.1 48 -8 17.6
08:05 1007 29.74 836 24.69 1.9 35.4 49 -7.6 18.3
08:10 1007 29.74 836 24.69 1.9 35.4 48 -7.9 17.8
08:15 1007 29.74 836 24.69 2 35.6 49 -7.5 18.5
08:20 1007 29.74 836 24.69 2 35.6 49 -7.7 18.2
08:25 1007 29.74 836 24.69 2 35.5 51 -7 19.4
08:30 1007 29.74 836 24.69 1.6 34.9 53 -6.9 19.6
08:35 1007 29.74 836 24.69 1.3 34.4 54 -6.9 19.5
08:40 1007 29.74 836 24.69 1.2 34.1 55 -6.9 19.5
08:45 1007 29.74 836 24.69 1.1 34 55 -7 19.4
08:50 1007 29.74 836 24.69 1.2 34.2 53 -7.3 18.9
08:55 1007 29.74 836 24.69 1.5 34.7 51 -7.5 18.4
09:00 1006 29.71 836 24.69 1.8 35.2 50 -7.6 18.4
09:05 1006 29.71 836 24.69 1.9 35.3 51 -7.1 19.1
09:10 1006 29.71 836 24.69 1.6 34.8 53 -6.9 19.5
09:15 1006 29.71 836 24.69 1 33.9 54 -7.3 18.9
09:20 1006 29.71 836 24.69 1.2 34.1 53 -7.4 18.7
09:25 1006 29.71 835 24.66 1.3 34.3 53 -7.2 19
09:30 1006 29.71 835 24.66 1.2 34.2 53 -7.3 18.9
09:35 1006 29.71 835 24.66 1.5 34.7 52 -7.3 18.9
09:40 1006 29.71 835 24.66 1.5 34.6 54 -7 19.5
09:45 1006 29.71 835 24.66 1.1 34 54 -7.1 19.2
09:50 1006 29.71 835 24.66 1.1 33.9 54 -7.1 19.2
09:55 1006 29.71 835 24.66 1.1 34 56 -6.7 19.9
10:00 1006 29.71 835 24.66 1.3 34.3 54 -7.1 19.2
10:05 1006 29.71 835 24.66 1.2 34.2 53 -7.2 19
10:10 1006 29.71 835 24.66 1.2 34.2 54 -7.2 19.1
10:15 1006 29.71 835 24.66 1.3 34.4 52 -7.4 18.6
10:20 1006 29.71 835 24.66 1.4 34.5 54 -7 19.5
10:25 1006 29.71 835 24.66 1.5 34.7 53 -7.1 19.3
10:30 1006 29.71 835 24.66 1.5 34.7 54 -6.7 19.9
10:35 1006 29.71 835 24.66 1.3 34.3 54 -7 19.3
10:40 1006 29.71 835 24.66 1.3 34.3 54 -6.9 19.5
10:45 1005 29.68 835 24.66 1.2 34.2 55 -6.8 19.7
10:50 1006 29.71 835 24.66 1.1 34 54 -7.1 19.2
10:55 1006 29.71 835 24.66 1.3 34.4 54 -7.1 19.2
11:00 1006 29.71 835 24.66 1.7 35 54 -6.7 19.9
11:05 1006 29.71 835 24.66 1.9 35.4 54 -6.4 20.4
11:10 1006 29.71 835 24.66 1.9 35.5 53 -6.6 20.1
11:15 1006 29.71 835 24.66 1.9 35.4 53 -6.8 19.8
11:20 1006 29.71 835 24.66 2.1 35.7 51 -7 19.3
11:25 1005 29.68 835 24.66 2.2 35.9 51 -7 19.4
11:30 1005 29.68 835 24.66 2.3 36.1 49 -7.3 18.9
11:35 1005 29.68 835 24.66 2.7 36.8 48 -7.3 18.9
11:40 1005 29.68 835 24.66 2.9 37.2 47 -7.4 18.7
11:45 1005 29.68 834 24.63 3.2 37.7 46 -7.4 18.7
11:50 1005 29.68 834 24.63 3.1 37.6 46 -7.3 18.8
11:55 1005 29.68 834 24.63 3.5 38.2 46 -7 19.3
12:00 1005 29.68 834 24.63 3.7 38.6 45 -7.1 19.2
12:05 1005 29.68 834 24.63 3.7 38.6 46 -6.8 19.7
12:10 1005 29.68 834 24.63 3.6 38.4 47 -6.7 19.9
12:15 1005 29.68 834 24.63 3.5 38.2 47 -6.7 19.9
12:20 1005 29.68 834 24.63 3.6 38.4 47 -6.6 20.1
12:25 1005 29.68 834 24.63 3.6 38.5 48 -6.3 20.7
12:30 1005 29.68 834 24.63 3.6 38.4 49 -6.2 20.8
12:35 1005 29.68 834 24.63 3.4 38.2 49 -6.2 20.8
12:40 1005 29.68 834 24.63 3.3 38 50 -6.1 21
12:45 1005 29.68 834 24.63 3.2 37.7 50 -6.3 20.7
12:50 1005 29.68 834 24.63 3.3 37.9 49 -6.5 20.3
12:55 1005 29.68 834 24.63 3.1 37.6 49 -6.7 20
13:00 1004 29.65 834 24.63 3.2 37.8 48 -6.8 19.8
13:05 1004 29.65 834 24.63 3.2 37.8 49 -6.5 20.3
13:10 1004 29.65 833 24.6 3.2 37.8 49 -6.5 20.3
13:15 1004 29.65 833 24.6 3.2 37.8 49 -6.5 20.2
13:20 1004 29.65 833 24.6 3.3 38 47 -6.9 19.6
13:25 1004 29.65 833 24.6 3.5 38.3 47 -6.7 20
13:30 1004 29.65 833 24.6 3.9 39 46 -6.7 20
13:35 1004 29.65 833 24.6 4.3 39.7 45 -6.7 19.9
13:40 1004 29.65 833 24.6 4.6 40.2 42 -7.1 19.2
13:45 1004 29.65 833 24.6 4.5 40 41 -7.5 18.5
13:50 1004 29.65 833 24.6 4.5 40.1 41 -7.7 18.1
13:55 1004 29.65 833 24.6 4.8 40.6 40 -7.6 18.3
14:00 1004 29.65 833 24.6 5.4 41.7 39 -7.3 18.8
14:05 1003 29.62 833 24.6 5.6 42.2 39 -7.2 19.1
14:10 1003 29.62 833 24.6 5.7 42.2 40 -6.8 19.7
14:15 1003 29.62 832 24.57 5.7 42.3 42 -6.1 21
14:20 1003 29.62 832 24.57 5.6 42.1 39 -7.3 18.9
14:25 1003 29.62 832 24.57 5.5 42 41 -6.8 19.8
14:30 1003 29.62 832 24.57 5.3 41.5 40 -7.3 18.9
14:35 1003 29.62 832 24.57 5.2 41.4 41 -7 19.5
14:40 1003 29.62 832 24.57 5.1 41.3 41 -7.2 19.1
14:45 1003 29.62 832 24.57 5.1 41.2 42 -6.8 19.8
14:50 1003 29.62 832 24.57 5.2 41.3 41 -6.9 19.6
14:55 1003 29.62 832 24.57 5.2 41.4 41 -6.9 19.5
15:00 1003 29.62 832 24.57 5.2 41.4 41 -7.1 19.2
15:05 1003 29.62 832 24.57 5.2 41.4 41 -6.9 19.6
15:10 1003 29.62 832 24.57 5.2 41.3 42 -6.7 20
15:15 1003 29.62 832 24.57 5.2 41.4 42 -6.6 20
15:20 1003 29.62 832 24.57 5.2 41.4 42 -6.8 19.8
15:25 1003 29.62 832 24.57 5.2 41.3 42 -6.7 19.9
15:30 1003 29.62 832 24.57 5.1 41.2 42 -6.8 19.7
15:35 1002 29.59 832 24.57 5.1 41.1 44 -6.3 20.6
15:40 1003 29.62 832 24.57 5 40.9 45 -5.9 21.4
15:45 1002 29.59 832 24.57 5 41.1 43 -6.7 20
15:50 1002 29.59 832 24.57 5.2 41.3 43 -6.5 20.4
15:55 1002 29.59 832 24.57 5.5 41.9 41 -6.6 20.1
16:00 1002 29.59 831 24.54 5.9 42.6 41 -6.5 20.3
16:05 1002 29.59 831 24.54 5.9 42.7 40 -6.7 20
16:10 1002 29.59 831 24.54 6.1 43 40 -6.4 20.5
16:15 1002 29.59 831 24.54 6 42.8 42 -5.9 21.4
16:20 1002 29.59 831 24.54 6 42.8 40 -6.6 20.1
16:25 1002 29.59 831 24.54 6.1 42.9 40 -6.4 20.4
16:30 1002 29.59 831 24.54 6 42.9 40 -6.5 20.3
16:35 1002 29.59 831 24.54 6 42.8 42 -6.1 21.1
16:40 1002 29.59 831 24.54 5.6 42.1 43 -6.1 21
16:45 1002 29.59 831 24.54 5.4 41.7 43 -6.3 20.7
16:50 1002 29.59 831 24.54 5.3 41.5 44 -6.1 21.1
16:55 1002 29.59 831 24.54 5.2 41.3 44 -6.2 20.8
17:00 1002 29.59 831 24.54 5.1 41.3 44 -6.3 20.7
17:05 1002 29.59 831 24.54 5.2 41.3 44 -6 21.3
17:10 1002 29.59 831 24.54 5.2 41.3 44 -6 21.2
17:15 1002 29.59 831 24.54 5.1 41.2 45 -6 21.2
17:20 1002 29.59 831 24.54 5.1 41.2 44 -6.1 21
17:25 1002 29.59 831 24.54 5.1 41.1 46 -5.5 22.1
17:30 1002 29.59 831 24.54 5 41 47 -5.5 22.1
17:35 1002 29.59 831 24.54 4.7 40.5 49 -5 23
17:40 1002 29.59 831 24.54 4.8 40.6 47 -5.5 22
17:45 1002 29.59 831 24.54 4.6 40.3 48 -5.3 22.4
17:50 1002 29.59 831 24.54 4.5 40.1 49 -5.5 22.2
17:55 1002 29.59 831 24.54 4.3 39.8 50 -5.3 22.5
18:00 1002 29.59 831 24.54 4.2 39.5 53 -4.7 23.6
18:05 1002 29.59 831 24.54 4.2 39.6 50 -5.4 22.3
18:10 1002 29.59 831 24.54 4.1 39.5 49 -5.7 21.8
18:15 1002 29.59 831 24.54 4.1 39.4 49 -5.7 21.8
18:20 1002 29.59 831 24.54 4 39.3 49 -5.7 21.8
18:25 1002 29.59 831 24.54 3.9 39 49 -5.7 21.7
18:30 1002 29.59 831 24.54 3.7 38.7 51 -5.6 21.9
18:35 1002 29.59 831 24.54 3.6 38.4 52 -5.5 22.1
18:40 1002 29.59 831 24.54 3.5 38.3 51 -5.7 21.7
18:45 1002 29.59 831 24.54 3.5 38.3 50 -5.8 21.5
18:50 1002 29.59 831 24.54 3.5 38.3 51 -5.7 21.8
18:55 1002 29.59 831 24.54 3.4 38.2 51 -5.7 21.7
19:00 1002 29.59 831 24.54 3.4 38.1 51 -5.8 21.6
19:05 1002 29.59 831 24.54 3.4 38.1 51 -5.8 21.6
19:10 1002 29.59 831 24.54 3.3 38 51 -5.9 21.4
19:15 1001 29.56 831 24.54 3.4 38.1 51 -5.8 21.6
19:20 1002 29.59 831 24.54 3.3 38 52 -5.6 21.9
19:25 1001 29.56 831 24.54 3.1 37.5 54 -5.3 22.5
19:30 1001 29.56 830 24.51 2.8 37.1 54 -5.5 22
19:35 1001 29.56 830 24.51 2.8 37 54 -5.7 21.8
19:40 1001 29.56 830 24.51 2.9 37.2 53 -5.9 21.4
19:45 1001 29.56 830 24.51 3 37.4 53 -5.6 21.8
19:50 1001 29.56 830 24.51 2.9 37.3 53 -5.8 21.6
19:55 1001 29.56 830 24.51 3 37.3 53 -5.8 21.5
20:00 1001 29.56 830 24.51 3 37.3 53 -5.7 21.8
20:05 1001 29.56 830 24.51 2.9 37.2 54 -5.6 21.9
20:10 1001 29.56 830 24.51 2.7 36.9 54 -5.6 21.9
20:15 1001 29.56 830 24.51 2.7 36.9 54 -5.7 21.8
20:20 1001 29.56 830 24.51 2.7 36.9 53 -5.8 21.5
20:25 1001 29.56 830 24.51 2.8 37 53 -5.9 21.4
20:30 1001 29.56 830 24.51 2.9 37.2 52 -6 21.2
20:35 1001 29.56 830 24.51 3 37.4 52 -6 21.2
20:40 1001 29.56 830 24.51 3.1 37.5 51 -6 21.1
20:45 1001 29.56 830 24.51 3.2 37.8 51 -6 21.1
20:50 1001 29.56 830 24.51 3.2 37.8 51 -6.1 21.1
20:55 1001 29.56 830 24.51 3.2 37.8 51 -6.1 21.1
21:00 1001 29.56 830 24.51 3.2 37.8 51 -6 21.2
21:05 1001 29.56 830 24.51 3.2 37.8 51 -6 21.1
21:10 1001 29.56 830 24.51 3.2 37.8 51 -6 21.2
21:15 1001 29.56 830 24.51 3.2 37.8 50 -6.2 20.9
21:20 1001 29.56 830 24.51 3.4 38.1 50 -6 21.1
21:25 1001 29.56 830 24.51 3.4 38.2 50 -6 21.2
21:30 1001 29.56 830 24.51 3.4 38 50 -6 21.1
21:35 1001 29.56 830 24.51 3.4 38.1 50 -6.2 20.8
21:40 1001 29.56 830 24.51 3.5 38.4 49 -6.3 20.7
21:45 1001 29.56 830 24.51 3.7 38.6 49 -6.1 21
21:50 1001 29.56 830 24.51 3.7 38.7 49 -6.1 21.1
21:55 1001 29.56 830 24.51 3.6 38.5 53 -5.2 22.7
22:00 1001 29.56 830 24.51 3.1 37.5 55 -5.2 22.7
22:05 1001 29.56 830 24.51 2.7 36.9 56 -5.3 22.5
22:10 1001 29.56 830 24.51 2.7 36.8 56 -5.2 22.6
22:15 1001 29.56 830 24.51 2.6 36.6 58 -4.9 23.2
22:20 1001 29.56 830 24.51 2.7 36.8 58 -4.8 23.3
22:25 1001 29.56 830 24.51 2.7 36.9 58 -4.8 23.4
22:30 1001 29.56 830 24.51 2.7 36.9 54 -5.6 22
22:35 1001 29.56 830 24.51 3 37.4 54 -5.5 22.1
22:40 1001 29.56 830 24.51 3.1 37.5 53 -5.6 21.9
22:45 1001 29.56 830 24.51 3.1 37.6 53 -5.5 22.1
22:50 1001 29.56 830 24.51 3.1 37.5 56 -4.8 23.4
22:55 1001 29.56 830 24.51 3.1 37.6 55 -5.2 22.7
23:00 1001 29.56 830 24.51 2.8 37 58 -4.8 23.4
23:05 1001 29.56 830 24.51 2.4 36.4 59 -4.7 23.6
23:10 1001 29.56 830 24.51 2.1 35.8 62 -4.5 23.9
23:15 1001 29.56 830 24.51 2 35.5 60 -4.9 23.2
23:20 1001 29.56 830 24.51 2.1 35.8 61 -4.7 23.5
23:25 1001 29.56 830 24.51 2.1 35.8 61 -4.7 23.6
23:30 1001 29.56 830 24.51 2.1 35.8 61 -4.7 23.5
23:35 1001 29.56 830 24.51 2.2 35.9 61 -4.6 23.6
23:40 1001 29.56 830 24.51 2.2 35.9 61 -4.5 23.8
23:45 1001 29.56 830 24.51 2.1 35.8 63 -4.2 24.4
23:50 1001 29.56 830 24.51 2 35.6 64 -4 24.8
23:55 1001 29.56 830 24.51 1.9 35.4 65 -3.9 24.9
24:00 1001 29.56 830 24.51 1.8 35.2 66 -3.9 25